sensor_id;sensor_type;location;lat;lon;timestamp;temperature;humidity
23591;DHT22;11973;52.098;7.582;2023-07-13T04:16:53;15.10;90.10
23591;DHT22;11973;52.098;7.582;2023-07-13T04:19:20;15.20;90.20
23591;DHT22;11973;52.098;7.582;2023-07-13T04:21:46;15.20;90.30
23591;DHT22;11973;52.098;7.582;2023-07-13T04:24:12;15.30;90.40
23591;DHT22;11973;52.098;7.582;2023-07-13T04:26:38;15.30;90.30
23591;DHT22;11973;52.098;7.582;2023-07-13T04:29:06;15.30;90.40
23591;DHT22;11973;52.098;7.582;2023-07-13T04:31:32;15.40;90.40
23591;DHT22;11973;52.098;7.582;2023-07-13T04:33:58;15.50;90.40
23591;DHT22;11973;52.098;7.582;2023-07-13T04:36:25;15.50;90.40
23591;DHT22;11973;52.098;7.582;2023-07-13T04:38:52;15.50;90.40
23591;DHT22;11973;52.098;7.582;2023-07-13T04:41:20;15.60;90.40
23591;DHT22;11973;52.098;7.582;2023-07-13T04:43:46;15.60;90.40
23591;DHT22;11973;52.098;7.582;2023-07-13T04:46:13;15.60;90.40
23591;DHT22;11973;52.098;7.582;2023-07-13T04:48:39;15.70;90.50
23591;DHT22;11973;52.098;7.582;2023-07-13T04:51:06;15.70;90.50
23591;DHT22;11973;52.098;7.582;2023-07-13T04:53:33;15.70;90.50
23591;DHT22;11973;52.098;7.582;2023-07-13T04:56:00;15.80;90.90
23591;DHT22;11973;52.098;7.582;2023-07-13T04:58:26;15.80;90.50
23591;DHT22;11973;52.098;7.582;2023-07-13T05:00:53;15.90;90.60
23591;DHT22;11973;52.098;7.582;2023-07-13T05:03:24;16.00;90.70
23591;DHT22;11973;52.098;7.582;2023-07-13T05:05:57;16.10;90.70
23591;DHT22;11973;52.098;7.582;2023-07-13T05:08:24;16.20;90.70
23591;DHT22;11973;52.098;7.582;2023-07-13T05:10:50;16.20;90.60
23591;DHT22;11973;52.098;7.582;2023-07-13T05:13:16;16.30;90.70
23591;DHT22;11973;52.098;7.582;2023-07-13T05:15:42;16.40;90.70
23591;DHT22;11973;52.098;7.582;2023-07-13T05:18:07;16.50;90.70
23591;DHT22;11973;52.098;7.582;2023-07-13T05:20:33;16.50;90.70
23591;DHT22;11973;52.098;7.582;2023-07-13T05:22:59;16.60;90.70
23591;DHT22;11973;52.098;7.582;2023-07-13T05:25:24;16.60;90.70
23591;DHT22;11973;52.098;7.582;2023-07-13T05:27:50;16.60;90.70
23591;DHT22;11973;52.098;7.582;2023-07-13T05:30:17;16.50;90.60
23591;DHT22;11973;52.098;7.582;2023-07-13T05:32:43;16.50;90.60
23591;DHT22;11973;52.098;7.582;2023-07-13T05:35:08;16.50;90.60
23591;DHT22;11973;52.098;7.582;2023-07-13T05:37:34;16.50;90.60
23591;DHT22;11973;52.098;7.582;2023-07-13T05:40:00;16.50;90.70
23591;DHT22;11973;52.098;7.582;2023-07-13T05:42:26;16.60;90.80
23591;DHT22;11973;52.098;7.582;2023-07-13T05:44:52;16.70;90.80
23591;DHT22;11973;52.098;7.582;2023-07-13T05:47:17;16.80;90.80
23591;DHT22;11973;52.098;7.582;2023-07-13T05:49:43;16.90;90.80
23591;DHT22;11973;52.098;7.582;2023-07-13T05:52:09;16.80;90.80
23591;DHT22;11973;52.098;7.582;2023-07-13T05:54:35;16.80;90.80
23591;DHT22;11973;52.098;7.582;2023-07-13T05:57:00;16.90;91.20
23591;DHT22;11973;52.098;7.582;2023-07-13T05:59:26;16.90;90.90
23591;DHT22;11973;52.098;7.582;2023-07-13T06:01:52;16.90;90.90
23591;DHT22;11973;52.098;7.582;2023-07-13T06:04:18;16.90;90.90
23591;DHT22;11973;52.098;7.582;2023-07-13T06:06:44;17.00;91.00
23591;DHT22;11973;52.098;7.582;2023-07-13T06:09:10;17.00;91.00
23591;DHT22;11973;52.098;7.582;2023-07-13T06:11:36;17.10;91.00
23591;DHT22;11973;52.098;7.582;2023-07-13T06:14:02;17.10;91.00
23591;DHT22;11973;52.098;7.582;2023-07-13T06:16:29;17.20;91.10
23591;DHT22;11973;52.098;7.582;2023-07-13T06:18:55;17.20;91.10
23591;DHT22;11973;52.098;7.582;2023-07-13T06:21:22;17.30;91.10
23591;DHT22;11973;52.098;7.582;2023-07-13T06:23:50;17.30;91.10
23591;DHT22;11973;52.098;7.582;2023-07-13T06:26:18;17.40;91.10
23591;DHT22;11973;52.098;7.582;2023-07-13T06:28:44;17.40;90.80
23591;DHT22;11973;52.098;7.582;2023-07-13T06:31:12;17.50;91.10
23591;DHT22;11973;52.098;7.582;2023-07-13T06:33:38;17.50;91.10
23591;DHT22;11973;52.098;7.582;2023-07-13T06:36:05;17.50;91.00
23591;DHT22;11973;52.098;7.582;2023-07-13T06:38:32;17.60;91.00
23591;DHT22;11973;52.098;7.582;2023-07-13T06:40:57;17.60;91.00
23591;DHT22;11973;52.098;7.582;2023-07-13T06:43:24;17.70;91.10
23591;DHT22;11973;52.098;7.582;2023-07-13T06:45:51;17.70;91.00
23591;DHT22;11973;52.098;7.582;2023-07-13T06:48:19;17.80;91.00
23591;DHT22;11973;52.098;7.582;2023-07-13T06:50:46;17.80;91.00
23591;DHT22;11973;52.098;7.582;2023-07-13T06:53:12;17.90;91.00
23591;DHT22;11973;52.098;7.582;2023-07-13T06:55:39;17.90;91.00
23591;DHT22;11973;52.098;7.582;2023-07-13T06:58:05;18.00;91.00
23591;DHT22;11973;52.098;7.582;2023-07-13T07:00:31;18.00;91.00
23591;DHT22;11973;52.098;7.582;2023-07-13T07:02:57;18.00;90.90
23591;DHT22;11973;52.098;7.582;2023-07-13T07:05:25;18.10;90.90
23591;DHT22;11973;52.098;7.582;2023-07-13T07:07:52;18.10;90.80
23591;DHT22;11973;52.098;7.582;2023-07-13T07:10:19;18.10;90.80
23591;DHT22;11973;52.098;7.582;2023-07-13T07:12:45;18.20;90.80
23591;DHT22;11973;52.098;7.582;2023-07-13T07:15:11;18.30;90.80
23591;DHT22;11973;52.098;7.582;2023-07-13T07:17:37;18.30;90.80
23591;DHT22;11973;52.098;7.582;2023-07-13T07:20:03;18.40;90.80
23591;DHT22;11973;52.098;7.582;2023-07-13T07:22:30;18.40;90.80
23591;DHT22;11973;52.098;7.582;2023-07-13T07:24:56;18.50;90.80
23591;DHT22;11973;52.098;7.582;2023-07-13T07:27:25;18.50;90.80
23591;DHT22;11973;52.098;7.582;2023-07-13T07:29:55;18.60;90.80
23591;DHT22;11973;52.098;7.582;2023-07-13T07:32:23;18.60;90.80
23591;DHT22;11973;52.098;7.582;2023-07-13T07:34:52;18.70;90.80
23591;DHT22;11973;52.098;7.582;2023-07-13T07:37:18;18.70;90.70
23591;DHT22;11973;52.098;7.582;2023-07-13T07:39:43;18.80;90.80
23591;DHT22;11973;52.098;7.582;2023-07-13T07:42:10;18.90;90.80
23591;DHT22;11973;52.098;7.582;2023-07-13T07:44:39;18.90;90.70
23591;DHT22;11973;52.098;7.582;2023-07-13T07:47:06;19.00;90.70
23591;DHT22;11973;52.098;7.582;2023-07-13T07:49:32;19.00;90.70
23591;DHT22;11973;52.098;7.582;2023-07-13T07:51:58;19.20;90.70
23591;DHT22;11973;52.098;7.582;2023-07-13T07:54:24;19.30;90.60
23591;DHT22;11973;52.098;7.582;2023-07-13T07:56:50;19.30;90.50
23591;DHT22;11973;52.098;7.582;2023-07-13T07:59:15;19.40;90.50
23591;DHT22;11973;52.098;7.582;2023-07-13T08:01:41;19.40;90.50
23591;DHT22;11973;52.098;7.582;2023-07-13T08:04:09;19.50;90.50
23591;DHT22;11973;52.098;7.582;2023-07-13T08:06:35;19.60;90.40
23591;DHT22;11973;52.098;7.582;2023-07-13T08:09:01;19.70;90.40
23591;DHT22;11973;52.098;7.582;2023-07-13T08:11:28;19.70;90.30
23591;DHT22;11973;52.098;7.582;2023-07-13T08:13:53;19.80;90.30
23591;DHT22;11973;52.098;7.582;2023-07-13T08:16:23;19.90;90.20
23591;DHT22;11973;52.098;7.582;2023-07-13T08:18:53;20.10;90.20
23591;DHT22;11973;52.098;7.582;2023-07-13T08:21:22;20.10;90.10
23591;DHT22;11973;52.098;7.582;2023-07-13T08:23:48;20.10;90.10
23591;DHT22;11973;52.098;7.582;2023-07-13T08:26:14;20.10;90.00
23591;DHT22;11973;52.098;7.582;2023-07-13T08:28:41;20.10;90.00
23591;DHT22;11973;52.098;7.582;2023-07-13T08:31:13;20.10;90.00
23591;DHT22;11973;52.098;7.582;2023-07-13T08:33:40;20.10;90.00
23591;DHT22;11973;52.098;7.582;2023-07-13T08:36:09;20.20;90.00
23591;DHT22;11973;52.098;7.582;2023-07-13T08:38:35;20.30;89.90
23591;DHT22;11973;52.098;7.582;2023-07-13T08:41:17;20.40;89.80
23591;DHT22;11973;52.098;7.582;2023-07-13T08:43:49;20.40;89.70
23591;DHT22;11973;52.098;7.582;2023-07-13T08:46:19;20.40;89.60
23591;DHT22;11973;52.098;7.582;2023-07-13T08:49:13;20.40;89.80
23591;DHT22;11973;52.098;7.582;2023-07-13T08:54:22;20.50;89.60
23591;DHT22;11973;52.098;7.582;2023-07-13T08:56:53;20.60;90.00
23591;DHT22;11973;52.098;7.582;2023-07-13T08:59:25;20.60;89.20
23591;DHT22;11973;52.098;7.582;2023-07-13T09:04:36;20.70;88.70
23591;DHT22;11973;52.098;7.582;2023-07-13T09:07:14;20.80;88.80
23591;DHT22;11973;52.098;7.582;2023-07-13T09:10:27;20.80;88.50
23591;DHT22;11973;52.098;7.582;2023-07-13T09:15:34;21.00;88.00
23591;DHT22;11973;52.098;7.582;2023-07-13T09:18:25;21.20;88.20
23591;DHT22;11973;52.098;7.582;2023-07-13T09:21:11;21.40;88.00
23591;DHT22;11973;52.098;7.582;2023-07-13T09:23:38;21.60;88.10
23591;DHT22;11973;52.098;7.582;2023-07-13T09:26:17;21.80;87.50
23591;DHT22;11973;52.098;7.582;2023-07-13T09:28:50;21.90;87.10
23591;DHT22;11973;52.098;7.582;2023-07-13T09:31:36;22.00;86.80
23591;DHT22;11973;52.098;7.582;2023-07-13T09:34:11;22.10;86.80
23591;DHT22;11973;52.098;7.582;2023-07-13T09:36:38;22.30;86.40
23591;DHT22;11973;52.098;7.582;2023-07-13T09:39:26;22.40;86.00
23591;DHT22;11973;52.098;7.582;2023-07-13T09:44:33;22.50;85.10
23591;DHT22;11973;52.098;7.582;2023-07-13T09:46:59;22.50;85.00
23591;DHT22;11973;52.098;7.582;2023-07-13T09:49:34;22.60;84.80
23591;DHT22;11973;52.098;7.582;2023-07-13T09:52:12;22.60;84.30
23591;DHT22;11973;52.098;7.582;2023-07-13T09:54:44;22.60;84.10
23591;DHT22;11973;52.098;7.582;2023-07-13T09:57:16;22.60;83.80
23591;DHT22;11973;52.098;7.582;2023-07-13T09:59:48;22.60;83.70
23591;DHT22;11973;52.098;7.582;2023-07-13T10:05:03;22.50;82.90
23591;DHT22;11973;52.098;7.582;2023-07-13T10:07:30;22.50;83.00
23591;DHT22;11973;52.098;7.582;2023-07-13T10:09:57;22.50;82.80
23591;DHT22;11973;52.098;7.582;2023-07-13T10:12:24;22.50;82.70
23591;DHT22;11973;52.098;7.582;2023-07-13T10:14:59;22.50;83.20
23591;DHT22;11973;52.098;7.582;2023-07-13T10:17:31;22.60;82.70
23591;DHT22;11973;52.098;7.582;2023-07-13T10:20:03;22.60;82.40
23591;DHT22;11973;52.098;7.582;2023-07-13T10:22:37;22.60;82.20
23591;DHT22;11973;52.098;7.582;2023-07-13T10:25:25;22.60;82.00
23591;DHT22;11973;52.098;7.582;2023-07-13T10:27:53;22.60;81.70
23591;DHT22;11973;52.098;7.582;2023-07-13T10:30:24;22.60;81.70
23591;DHT22;11973;52.098;7.582;2023-07-13T10:32:58;22.60;81.30
23591;DHT22;11973;52.098;7.582;2023-07-13T10:35:27;22.60;80.90
23591;DHT22;11973;52.098;7.582;2023-07-13T10:38:00;22.60;80.80
23591;DHT22;11973;52.098;7.582;2023-07-13T10:40:37;22.60;80.90
23591;DHT22;11973;52.098;7.582;2023-07-13T10:43:23;22.50;80.80
23591;DHT22;11973;52.098;7.582;2023-07-13T10:45:53;22.50;80.70
23591;DHT22;11973;52.098;7.582;2023-07-13T10:48:21;22.40;80.70
23591;DHT22;11973;52.098;7.582;2023-07-13T10:50:51;22.40;80.40
23591;DHT22;11973;52.098;7.582;2023-07-13T10:53:37;22.50;80.10
23591;DHT22;11973;52.098;7.582;2023-07-13T10:56:28;22.50;79.50
23591;DHT22;11973;52.098;7.582;2023-07-13T11:04:43;22.80;79.20
23591;DHT22;11973;52.098;7.582;2023-07-13T11:07:22;23.00;79.50
23591;DHT22;11973;52.098;7.582;2023-07-13T11:10:02;23.10;79.00
23591;DHT22;11973;52.098;7.582;2023-07-13T11:12:53;23.30;78.50
23591;DHT22;11973;52.098;7.582;2023-07-13T11:15:42;23.40;77.60
23591;DHT22;11973;52.098;7.582;2023-07-13T11:18:21;23.50;77.40
23591;DHT22;11973;52.098;7.582;2023-07-13T11:20:48;23.60;77.30
23591;DHT22;11973;52.098;7.582;2023-07-13T11:25:44;23.60;77.10
23591;DHT22;11973;52.098;7.582;2023-07-13T11:31:00;23.80;76.40
23591;DHT22;11973;52.098;7.582;2023-07-13T11:36:06;23.90;76.20
23591;DHT22;11973;52.098;7.582;2023-07-13T11:38:40;24.00;75.40
23591;DHT22;11973;52.098;7.582;2023-07-13T11:41:18;24.10;75.00
23591;DHT22;11973;52.098;7.582;2023-07-13T11:43:45;24.30;74.70
23591;DHT22;11973;52.098;7.582;2023-07-13T11:46:26;24.40;74.40
23591;DHT22;11973;52.098;7.582;2023-07-13T11:48:53;24.60;73.60
23591;DHT22;11973;52.098;7.582;2023-07-13T11:51:29;24.80;73.50
23591;DHT22;11973;52.098;7.582;2023-07-13T11:54:05;25.00;72.80
23591;DHT22;11973;52.098;7.582;2023-07-13T11:56:31;25.00;72.40
23591;DHT22;11973;52.098;7.582;2023-07-13T11:59:04;24.90;72.40
23591;DHT22;11973;52.098;7.582;2023-07-13T12:01:32;24.80;72.20
23591;DHT22;11973;52.098;7.582;2023-07-13T12:04:03;24.80;72.00
23591;DHT22;11973;52.098;7.582;2023-07-13T12:06:31;24.80;71.70
23591;DHT22;11973;52.098;7.582;2023-07-13T12:09:03;24.80;71.40
23591;DHT22;11973;52.098;7.582;2023-07-13T12:11:35;24.80;71.20
23591;DHT22;11973;52.098;7.582;2023-07-13T12:14:03;24.70;70.70
23591;DHT22;11973;52.098;7.582;2023-07-13T12:16:33;24.40;70.70
23591;DHT22;11973;52.098;7.582;2023-07-13T12:19:00;24.20;70.50
23591;DHT22;11973;52.098;7.582;2023-07-13T12:21:32;23.90;70.10
23591;DHT22;11973;52.098;7.582;2023-07-13T12:23:58;23.50;69.60
23591;DHT22;11973;52.098;7.582;2023-07-13T12:26:24;23.10;70.00
23591;DHT22;11973;52.098;7.582;2023-07-13T12:28:53;22.60;70.00
23591;DHT22;11973;52.098;7.582;2023-07-13T12:31:31;22.10;70.70
23591;DHT22;11973;52.098;7.582;2023-07-13T12:34:06;21.80;71.60
23591;DHT22;11973;52.098;7.582;2023-07-13T12:36:35;21.60;72.70
23591;DHT22;11973;52.098;7.582;2023-07-13T12:39:12;21.60;73.90
23591;DHT22;11973;52.098;7.582;2023-07-13T12:41:38;21.70;74.70
23591;DHT22;11973;52.098;7.582;2023-07-13T12:44:09;21.70;75.40
23591;DHT22;11973;52.098;7.582;2023-07-13T12:46:35;21.80;76.00
23591;DHT22;11973;52.098;7.582;2023-07-13T12:49:06;22.00;76.50
23591;DHT22;11973;52.098;7.582;2023-07-13T12:51:32;22.20;76.90
23591;DHT22;11973;52.098;7.582;2023-07-13T12:54:11;22.40;77.30
23591;DHT22;11973;52.098;7.582;2023-07-13T12:56:38;22.70;77.30
23591;DHT22;11973;52.098;7.582;2023-07-13T12:59:04;23.10;78.20
23591;DHT22;11973;52.098;7.582;2023-07-13T13:01:34;23.50;77.40
23591;DHT22;11973;52.098;7.582;2023-07-13T13:04:03;23.80;77.20
23591;DHT22;11973;52.098;7.582;2023-07-13T13:06:34;23.90;77.00
23591;DHT22;11973;52.098;7.582;2023-07-13T13:09:02;23.90;77.00
23591;DHT22;11973;52.098;7.582;2023-07-13T13:11:31;23.90;76.80
23591;DHT22;11973;52.098;7.582;2023-07-13T13:13:57;23.80;76.50
23591;DHT22;11973;52.098;7.582;2023-07-13T13:16:30;23.70;76.50
23591;DHT22;11973;52.098;7.582;2023-07-13T13:19:14;23.50;75.90
23591;DHT22;11973;52.098;7.582;2023-07-13T13:21:43;23.30;75.70
23591;DHT22;11973;52.098;7.582;2023-07-13T13:24:14;23.10;76.00
23591;DHT22;11973;52.098;7.582;2023-07-13T13:26:41;22.90;75.70
23591;DHT22;11973;52.098;7.582;2023-07-13T13:29:18;22.60;75.90
23591;DHT22;11973;52.098;7.582;2023-07-13T13:31:45;22.10;76.00
23591;DHT22;11973;52.098;7.582;2023-07-13T13:34:15;21.70;77.00
23591;DHT22;11973;52.098;7.582;2023-07-13T13:36:49;21.30;77.90
23591;DHT22;11973;52.098;7.582;2023-07-13T13:39:36;21.00;78.90
23591;DHT22;11973;52.098;7.582;2023-07-13T13:42:03;20.80;80.10
23591;DHT22;11973;52.098;7.582;2023-07-13T13:45:14;20.80;81.50
23591;DHT22;11973;52.098;7.582;2023-07-13T13:47:45;20.70;82.40
23591;DHT22;11973;52.098;7.582;2023-07-13T13:50:17;20.70;83.30
23591;DHT22;11973;52.098;7.582;2023-07-13T13:52:44;20.60;84.20
23591;DHT22;11973;52.098;7.582;2023-07-13T13:55:18;20.50;84.90
23591;DHT22;11973;52.098;7.582;2023-07-13T13:57:48;20.50;86.30
23591;DHT22;11973;52.098;7.582;2023-07-13T14:00:15;20.40;86.30
23591;DHT22;11973;52.098;7.582;2023-07-13T14:02:48;20.30;87.30
23591;DHT22;11973;52.098;7.582;2023-07-13T14:05:20;20.20;89.30
23591;DHT22;11973;52.098;7.582;2023-07-13T14:07:47;20.10;90.10
23591;DHT22;11973;52.098;7.582;2023-07-13T14:10:17;20.10;90.30
23591;DHT22;11973;52.098;7.582;2023-07-13T14:12:44;20.10;90.30
23591;DHT22;11973;52.098;7.582;2023-07-13T14:15:27;20.10;90.60
23591;DHT22;11973;52.098;7.582;2023-07-13T14:17:54;20.00;90.70
23591;DHT22;11973;52.098;7.582;2023-07-13T14:20:22;20.00;91.10
23591;DHT22;11973;52.098;7.582;2023-07-13T14:22:49;20.00;91.30
23591;DHT22;11973;52.098;7.582;2023-07-13T14:25:17;19.90;91.80
23591;DHT22;11973;52.098;7.582;2023-07-13T14:27:44;19.90;92.50
23591;DHT22;11973;52.098;7.582;2023-07-13T14:30:21;19.90;92.80
23591;DHT22;11973;52.098;7.582;2023-07-13T14:32:47;20.00;92.80
23591;DHT22;11973;52.098;7.582;2023-07-13T14:35:16;20.00;93.00
23591;DHT22;11973;52.098;7.582;2023-07-13T14:37:43;20.20;93.20
23591;DHT22;11973;52.098;7.582;2023-07-13T14:40:14;20.40;93.20
23591;DHT22;11973;52.098;7.582;2023-07-13T14:42:40;20.60;93.40
23591;DHT22;11973;52.098;7.582;2023-07-13T14:45:14;21.00;93.80
23591;DHT22;11973;52.098;7.582;2023-07-13T14:47:42;21.60;94.40
23591;DHT22;11973;52.098;7.582;2023-07-13T14:50:20;22.20;94.30
23591;DHT22;11973;52.098;7.582;2023-07-13T14:52:47;22.70;94.10
23591;DHT22;11973;52.098;7.582;2023-07-13T14:55:16;23.00;93.90
23591;DHT22;11973;52.098;7.582;2023-07-13T14:57:42;23.00;93.60
23591;DHT22;11973;52.098;7.582;2023-07-13T15:00:15;23.00;93.40
23591;DHT22;11973;52.098;7.582;2023-07-13T15:02:43;22.80;93.20
23591;DHT22;11973;52.098;7.582;2023-07-13T15:05:18;22.70;93.30
23591;DHT22;11973;52.098;7.582;2023-07-13T15:07:44;22.60;93.30
23591;DHT22;11973;52.098;7.582;2023-07-13T15:10:19;22.70;93.60
23591;DHT22;11973;52.098;7.582;2023-07-13T15:12:45;22.70;93.50
23591;DHT22;11973;52.098;7.582;2023-07-13T15:15:11;22.70;93.60
23591;DHT22;11973;52.098;7.582;2023-07-13T15:17:42;22.70;93.60
23591;DHT22;11973;52.098;7.582;2023-07-13T15:20:28;22.60;93.50
23591;DHT22;11973;52.098;7.582;2023-07-13T15:22:54;22.70;93.30
23591;DHT22;11973;52.098;7.582;2023-07-13T15:25:23;22.80;93.70
23591;DHT22;11973;52.098;7.582;2023-07-13T15:27:51;23.50;94.80
23591;DHT22;11973;52.098;7.582;2023-07-13T15:30:17;24.70;95.50
23591;DHT22;11973;52.098;7.582;2023-07-13T15:32:44;26.00;94.90
23591;DHT22;11973;52.098;7.582;2023-07-13T15:35:21;27.00;94.10
23591;DHT22;11973;52.098;7.582;2023-07-13T15:37:48;27.60;93.00
23591;DHT22;11973;52.098;7.582;2023-07-13T15:40:14;28.10;92.90
23591;DHT22;11973;52.098;7.582;2023-07-13T15:42:41;28.60;92.50
23591;DHT22;11973;52.098;7.582;2023-07-13T15:45:15;28.80;91.60
23591;DHT22;11973;52.098;7.582;2023-07-13T15:47:43;28.70;90.60
23591;DHT22;11973;52.098;7.582;2023-07-13T15:50:15;28.60;91.00
23591;DHT22;11973;52.098;7.582;2023-07-13T15:52:41;29.20;91.20
23591;DHT22;11973;52.098;7.582;2023-07-13T15:55:12;29.90;91.10
23591;DHT22;11973;52.098;7.582;2023-07-13T15:57:45;30.50;90.50
23591;DHT22;11973;52.098;7.582;2023-07-13T16:00:21;31.30;90.10
23591;DHT22;11973;52.098;7.582;2023-07-13T16:02:48;32.00;87.70
23591;DHT22;11973;52.098;7.582;2023-07-13T16:05:15;32.70;86.80
23591;DHT22;11973;52.098;7.582;2023-07-13T16:07:46;33.40;85.50
23591;DHT22;11973;52.098;7.582;2023-07-13T16:10:17;34.00;83.30
23591;DHT22;11973;52.098;7.582;2023-07-13T16:12:43;34.50;80.60
23591;DHT22;11973;52.098;7.582;2023-07-13T16:15:15;35.00;80.00
23591;DHT22;11973;52.098;7.582;2023-07-13T16:17:42;35.40;77.50
23591;DHT22;11973;52.098;7.582;2023-07-13T16:20:09;35.80;77.00
23591;DHT22;11973;52.098;7.582;2023-07-13T16:22:40;36.10;75.70
23591;DHT22;11973;52.098;7.582;2023-07-13T16:25:23;35.70;74.10
23591;DHT22;11973;52.098;7.582;2023-07-13T16:27:51;34.70;73.90
23591;DHT22;11973;52.098;7.582;2023-07-13T16:30:23;33.50;72.00
23591;DHT22;11973;52.098;7.582;2023-07-13T16:32:53;32.40;72.50
23591;DHT22;11973;52.098;7.582;2023-07-13T16:35:24;31.40;71.80
23591;DHT22;11973;52.098;7.582;2023-07-13T16:37:51;30.40;72.30
23591;DHT22;11973;52.098;7.582;2023-07-13T16:40:27;29.60;73.30
23591;DHT22;11973;52.098;7.582;2023-07-13T16:42:56;29.00;73.70
23591;DHT22;11973;52.098;7.582;2023-07-13T16:45:30;28.60;74.10
23591;DHT22;11973;52.098;7.582;2023-07-13T16:48:01;28.20;74.20
23591;DHT22;11973;52.098;7.582;2023-07-13T16:50:31;27.80;75.00
23591;DHT22;11973;52.098;7.582;2023-07-13T16:52:57;27.30;75.10
23591;DHT22;11973;52.098;7.582;2023-07-13T16:55:24;26.80;75.10
23591;DHT22;11973;52.098;7.582;2023-07-13T16:57:59;26.30;75.20
23591;DHT22;11973;52.098;7.582;2023-07-13T17:00:30;25.80;75.40
23591;DHT22;11973;52.098;7.582;2023-07-13T17:03:01;25.30;75.70
23591;DHT22;11973;52.098;7.582;2023-07-13T17:05:28;24.80;75.70
23591;DHT22;11973;52.098;7.582;2023-07-13T17:07:55;24.40;75.70
23591;DHT22;11973;52.098;7.582;2023-07-13T17:10:21;24.00;75.40
23591;DHT22;11973;52.098;7.582;2023-07-13T17:12:50;23.50;75.80
23591;DHT22;11973;52.098;7.582;2023-07-13T17:15:16;23.10;76.20
23591;DHT22;11973;52.098;7.582;2023-07-13T17:17:44;22.70;76.50
23591;DHT22;11973;52.098;7.582;2023-07-13T17:22:48;21.90;77.50
23591;DHT22;11973;52.098;7.582;2023-07-13T17:25:16;21.50;78.10
23591;DHT22;11973;52.098;7.582;2023-07-13T17:27:42;21.20;78.60
23591;DHT22;11973;52.098;7.582;2023-07-13T17:30:29;20.90;79.00
23591;DHT22;11973;52.098;7.582;2023-07-13T17:32:55;20.60;79.80
23591;DHT22;11973;52.098;7.582;2023-07-13T17:35:26;20.50;80.40
23591;DHT22;11973;52.098;7.582;2023-07-13T17:37:58;20.40;81.20
23591;DHT22;11973;52.098;7.582;2023-07-13T17:40:24;20.30;81.70
23591;DHT22;11973;52.098;7.582;2023-07-13T17:42:50;20.30;82.40
23591;DHT22;11973;52.098;7.582;2023-07-13T17:45:28;20.30;82.90
23591;DHT22;11973;52.098;7.582;2023-07-13T17:47:55;20.30;83.40
23591;DHT22;11973;52.098;7.582;2023-07-13T17:50:35;20.30;84.00
23591;DHT22;11973;52.098;7.582;2023-07-13T17:55:33;20.30;84.70
23591;DHT22;11973;52.098;7.582;2023-07-13T17:58:00;20.30;85.10
23591;DHT22;11973;52.098;7.582;2023-07-13T18:00:31;20.30;85.50
23591;DHT22;11973;52.098;7.582;2023-07-13T18:03:04;20.30;86.00
23591;DHT22;11973;52.098;7.582;2023-07-13T18:05:31;20.40;86.40
23591;DHT22;11973;52.098;7.582;2023-07-13T18:07:58;20.40;86.60
23591;DHT22;11973;52.098;7.582;2023-07-13T18:10:24;20.40;87.00
23591;DHT22;11973;52.098;7.582;2023-07-13T18:12:53;20.40;87.40
23591;DHT22;11973;52.098;7.582;2023-07-13T18:15:22;20.40;87.70
23591;DHT22;11973;52.098;7.582;2023-07-13T18:17:50;20.40;88.00
23591;DHT22;11973;52.098;7.582;2023-07-13T18:20:18;20.40;88.10
23591;DHT22;11973;52.098;7.582;2023-07-13T18:22:45;20.40;88.50
23591;DHT22;11973;52.098;7.582;2023-07-13T18:25:19;20.40;88.70
23591;DHT22;11973;52.098;7.582;2023-07-13T18:27:45;20.30;88.80
23591;DHT22;11973;52.098;7.582;2023-07-13T18:30:16;20.30;89.00
23591;DHT22;11973;52.098;7.582;2023-07-13T18:32:48;20.20;89.30
23591;DHT22;11973;52.098;7.582;2023-07-13T18:35:27;20.20;89.60
23591;DHT22;11973;52.098;7.582;2023-07-13T18:37:54;20.10;89.70
23591;DHT22;11973;52.098;7.582;2023-07-13T18:40:20;20.10;89.90
23591;DHT22;11973;52.098;7.582;2023-07-13T18:42:50;20.00;90.00
23591;DHT22;11973;52.098;7.582;2023-07-13T18:45:17;20.00;90.00
23591;DHT22;11973;52.098;7.582;2023-07-13T18:47:45;19.90;90.10
23591;DHT22;11973;52.098;7.582;2023-07-13T18:50:17;19.80;90.10
23591;DHT22;11973;52.098;7.582;2023-07-13T18:52:47;19.80;90.30
23591;DHT22;11973;52.098;7.582;2023-07-13T18:55:19;19.70;90.30
23591;DHT22;11973;52.098;7.582;2023-07-13T18:57:45;19.70;90.50
23591;DHT22;11973;52.098;7.582;2023-07-13T19:00:13;19.60;90.50
23591;DHT22;11973;52.098;7.582;2023-07-13T19:02:39;19.60;90.70
23591;DHT22;11973;52.098;7.582;2023-07-13T19:05:14;19.60;90.80
23591;DHT22;11973;52.098;7.582;2023-07-13T19:07:40;19.60;90.90
23591;DHT22;11973;52.098;7.582;2023-07-13T19:10:13;19.50;90.90
23591;DHT22;11973;52.098;7.582;2023-07-13T19:12:42;19.50;91.00
23591;DHT22;11973;52.098;7.582;2023-07-13T19:15:20;19.50;91.10
23591;DHT22;11973;52.098;7.582;2023-07-13T19:17:49;19.50;91.20
23591;DHT22;11973;52.098;7.582;2023-07-13T19:20:18;19.50;91.20
23591;DHT22;11973;52.098;7.582;2023-07-13T19:23:00;19.40;91.20
23591;DHT22;11973;52.098;7.582;2023-07-13T19:25:27;19.40;91.30
23591;DHT22;11973;52.098;7.582;2023-07-13T19:28:02;19.30;91.40
23591;DHT22;11973;52.098;7.582;2023-07-13T19:30:29;19.30;91.50
23591;DHT22;11973;52.098;7.582;2023-07-13T19:32:56;19.20;91.50
23591;DHT22;11973;52.098;7.582;2023-07-13T19:35:24;19.20;91.60
23591;DHT22;11973;52.098;7.582;2023-07-13T19:37:51;19.10;91.60
23591;DHT22;11973;52.098;7.582;2023-07-13T19:40:20;19.10;91.70
23591;DHT22;11973;52.098;7.582;2023-07-13T19:42:48;19.00;91.80
23591;DHT22;11973;52.098;7.582;2023-07-13T19:45:17;19.00;91.80
23591;DHT22;11973;52.098;7.582;2023-07-13T19:47:43;19.00;92.00
23591;DHT22;11973;52.098;7.582;2023-07-13T19:50:12;18.90;91.90
23591;DHT22;11973;52.098;7.582;2023-07-13T19:52:46;18.80;92.00
23591;DHT22;11973;52.098;7.582;2023-07-13T19:55:15;18.80;92.00
23591;DHT22;11973;52.098;7.582;2023-07-13T19:57:43;18.70;92.10
23591;DHT22;11973;52.098;7.582;2023-07-13T20:00:17;18.60;92.10
23591;DHT22;11973;52.098;7.582;2023-07-13T20:03:09;18.60;92.20
23591;DHT22;11973;52.098;7.582;2023-07-13T20:05:35;18.50;92.20
23591;DHT22;11973;52.098;7.582;2023-07-13T20:08:14;18.40;92.30
23591;DHT22;11973;52.098;7.582;2023-07-13T20:10:42;18.40;92.40
23591;DHT22;11973;52.098;7.582;2023-07-13T20:13:13;18.30;92.40
23591;DHT22;11973;52.098;7.582;2023-07-13T20:15:41;18.20;92.50
23591;DHT22;11973;52.098;7.582;2023-07-13T20:18:13;18.20;92.50
23591;DHT22;11973;52.098;7.582;2023-07-13T20:20:41;18.10;92.50
23591;DHT22;11973;52.098;7.582;2023-07-13T20:23:16;18.10;92.60
23591;DHT22;11973;52.098;7.582;2023-07-13T20:25:43;18.00;92.60
23591;DHT22;11973;52.098;7.582;2023-07-13T20:28:10;17.90;92.70
23591;DHT22;11973;52.098;7.582;2023-07-13T20:30:39;17.90;92.70
23591;DHT22;11973;52.098;7.582;2023-07-13T20:33:10;17.80;92.80
23591;DHT22;11973;52.098;7.582;2023-07-13T20:35:37;17.80;92.90